createdAt,value
2023-03-29T00:00:08.204Z,101677.94
2023-03-29T00:02:39.201Z,101670.13
2023-03-29T00:05:07.500Z,101665.72
2023-03-29T00:07:34.796Z,101675.28
2023-03-29T00:10:04.682Z,101676.16
2023-03-29T00:12:32.818Z,101665.72
2023-03-29T00:15:00.131Z,101663.88
2023-03-29T00:17:28.028Z,101651.69
2023-03-29T00:19:55.511Z,101658.66
2023-03-29T00:25:27.535Z,101641.13
2023-03-29T00:27:54.944Z,101651.56
2023-03-29T00:30:22.151Z,101645.41
2023-03-29T00:32:49.627Z,101647.13
2023-03-29T00:35:17.237Z,101635.81
2023-03-29T00:37:47.200Z,101631.53
2023-03-29T00:40:15.431Z,101628.03
2023-03-29T00:42:46.233Z,101621.91
2023-03-29T00:45:13.536Z,101624.50
2023-03-29T00:47:46.786Z,101630.66
2023-03-29T00:50:17.091Z,101622.75
2023-03-29T00:52:48.833Z,101624.50
2023-03-29T00:55:21.838Z,101620.13
2023-03-29T00:57:52.176Z,101610.50
2023-03-29T01:00:25.084Z,101600.00
2023-03-29T01:02:59.589Z,101603.53
2023-03-29T01:05:37.863Z,101612.25
2023-03-29T01:08:21.765Z,101600.00
2023-03-29T01:10:55.154Z,101601.66
2023-03-29T01:13:28.835Z,101579.91
2023-03-29T01:15:58.651Z,101582.50
2023-03-29T01:18:26.056Z,101586.91
2023-03-29T01:21:17.170Z,101588.63
2023-03-29T01:23:47.535Z,101577.28
2023-03-29T01:26:27.135Z,101581.69
2023-03-29T01:29:00.130Z,101573.03
2023-03-29T01:31:37.230Z,101573.03
2023-03-29T01:34:10.797Z,101562.66
2023-03-29T01:37:04.462Z,101564.44
2023-03-29T01:39:34.198Z,101568.81
2023-03-29T01:42:19.520Z,101566.19
2023-03-29T01:45:03.460Z,101560.09
2023-03-29T01:47:54.736Z,101561.06
2023-03-29T01:50:31.405Z,101559.31
2023-03-29T01:53:08.014Z,101561.13
2023-03-29T01:55:39.386Z,101551.56
2023-03-29T01:58:10.159Z,101560.28
2023-03-29T02:00:38.375Z,101548.94
2023-03-29T02:03:09.217Z,101555.91
2023-03-29T02:05:39.567Z,101553.22
2023-03-29T02:08:10.855Z,101556.72
2023-03-29T02:10:38.410Z,101548.88
2023-03-29T02:13:05.855Z,101541.94
2023-03-29T02:15:33.962Z,101532.41
2023-03-29T02:18:04.081Z,101519.34
2023-03-29T02:20:41.138Z,101515.81
2023-03-29T02:23:18.125Z,101509.72
2023-03-29T02:25:46.612Z,101505.38
2023-03-29T02:28:14.504Z,101497.56
2023-03-29T02:30:56.976Z,101493.25
2023-03-29T02:33:31.338Z,101491.50
2023-03-29T02:36:05.156Z,101489.78
2023-03-29T02:38:33.016Z,101480.19
2023-03-29T02:41:01.526Z,101483.69
2023-03-29T02:43:29.572Z,101482.88
2023-03-29T02:45:57.491Z,101478.47
2023-03-29T02:48:26.837Z,101476.66
2023-03-29T02:50:58.132Z,101476.66
2023-03-29T02:53:42.365Z,101490.63
2023-03-29T02:56:10.077Z,101472.28
2023-03-29T02:58:37.466Z,101472.28
2023-03-29T03:01:06.937Z,101467.06
2023-03-29T03:03:35.842Z,101469.69
2023-03-29T03:06:04.878Z,101465.34
2023-03-29T03:08:32.629Z,101460.13
2023-03-29T03:11:00.140Z,101454.09
2023-03-29T03:13:27.509Z,101448.88
2023-03-29T03:15:55.269Z,101455.03
2023-03-29T03:18:23.368Z,101447.25
2023-03-29T03:21:01.850Z,101441.13
2023-03-29T03:23:29.588Z,101451.63
2023-03-29T03:25:58.205Z,101451.63
2023-03-29T03:28:27.373Z,101439.47
2023-03-29T03:30:55.417Z,101439.53
2023-03-29T03:33:27.071Z,101438.66
2023-03-29T03:36:34.769Z,101427.31
2023-03-29T03:39:05.975Z,101430.88
2023-03-29T03:41:34.400Z,101439.53
2023-03-29T03:44:02.055Z,101427.38
2023-03-29T03:46:29.847Z,101436.09
2023-03-29T03:48:58.616Z,101434.38
2023-03-29T03:51:33.519Z,101424.81
2023-03-29T03:54:01.175Z,101430.94
2023-03-29T03:56:34.336Z,101425.72
2023-03-29T03:59:05.190Z,101423.97
2023-03-29T04:01:43.449Z,101416.16
2023-03-29T04:04:17.679Z,101422.25
2023-03-29T04:07:02.769Z,101410.06
2023-03-29T04:10:02.176Z,101409.25
2023-03-29T04:13:02.438Z,101404.03
2023-03-29T04:15:33.814Z,101397.03
2023-03-29T04:18:07.698Z,101403.97
2023-03-29T04:20:41.612Z,101398.00
2023-03-29T04:23:09.729Z,101402.38
2023-03-29T04:25:39.311Z,101394.53
2023-03-29T04:28:06.631Z,101396.31
2023-03-29T04:30:42.542Z,101396.31
2023-03-29T04:33:32.989Z,101391.97
2023-03-29T04:36:01.486Z,101388.53
2023-03-29T04:38:30.731Z,101385.03
2023-03-29T04:40:58.404Z,101379.88
2023-03-29T04:43:46.627Z,101383.28
2023-03-29T04:46:28.145Z,101380.75
2023-03-29T04:49:14.454Z,101393.88
2023-03-29T04:51:45.812Z,101382.59
2023-03-29T04:54:13.226Z,101378.25
2023-03-29T04:57:00.706Z,101380.88
2023-03-29T04:59:39.790Z,101381.75
2023-03-29T05:02:19.194Z,101373.91
2023-03-29T05:04:49.184Z,101376.53
2023-03-29T05:07:19.155Z,101378.31
2023-03-29T05:09:47.576Z,101380.00
2023-03-29T05:12:15.086Z,101373.97
2023-03-29T05:15:00.347Z,101373.16
2023-03-29T05:17:29.122Z,101373.16
2023-03-29T05:20:09.188Z,101372.31
2023-03-29T05:22:38.256Z,101373.19
2023-03-29T05:25:08.381Z,101361.84
2023-03-29T05:27:35.920Z,101365.34
2023-03-29T05:30:09.046Z,101366.28
2023-03-29T05:33:11.678Z,101368.06
2023-03-29T05:35:40.114Z,101370.75
2023-03-29T05:38:08.985Z,101363.84
2023-03-29T05:40:37.195Z,101379.53
2023-03-29T05:43:29.429Z,101373.44
2023-03-29T05:45:57.239Z,101377.84
2023-03-29T05:48:26.252Z,101368.34
2023-03-29T05:50:55.553Z,101369.28
2023-03-29T05:53:25.183Z,101371.06
2023-03-29T05:55:52.717Z,101375.38
2023-03-29T05:58:22.514Z,101371.06
2023-03-29T06:00:51.384Z,101370.28
2023-03-29T06:03:38.643Z,101365.94
2023-03-29T06:06:06.910Z,101372.09
2023-03-29T06:08:35.179Z,101374.75
2023-03-29T06:11:13.514Z,101373.94
2023-03-29T06:13:59.315Z,101377.44
2023-03-29T06:16:26.927Z,101376.69
2023-03-29T06:18:54.499Z,101378.47
2023-03-29T06:21:22.962Z,101377.69
2023-03-29T06:23:50.415Z,101374.25
2023-03-29T06:26:19.014Z,101369.91
2023-03-29T06:28:49.839Z,101368.22
2023-03-29T06:31:19.953Z,101370.91
2023-03-29T06:33:50.886Z,101374.44
2023-03-29T06:36:47.620Z,101374.50
2023-03-29T06:39:16.491Z,101379.78
2023-03-29T06:42:20.538Z,101379.81
2023-03-29T06:45:15.037Z,101386.88
2023-03-29T06:47:46.369Z,101380.75
2023-03-29T06:50:14.746Z,101386.09
2023-03-29T06:53:05.312Z,101379.25
2023-03-29T06:55:34.467Z,101373.22
2023-03-29T06:58:15.476Z,101382.94
2023-03-29T07:00:43.273Z,101385.66
2023-03-29T07:03:24.703Z,101380.59
2023-03-29T07:06:03.891Z,101376.31
2023-03-29T07:08:35.271Z,101375.63
2023-03-29T07:11:07.170Z,101361.03
2023-03-29T07:13:37.291Z,101356.94
2023-03-29T07:16:14.438Z,101354.72
2023-03-29T07:19:05.035Z,101367.28
2023-03-29T07:21:53.069Z,101365.84
2023-03-29T07:24:22.609Z,101369.44
2023-03-29T07:27:03.168Z,101357.34
2023-03-29T07:29:33.295Z,101366.22
2023-03-29T07:32:01.107Z,101353.19
2023-03-29T07:34:37.525Z,101363.00
2023-03-29T07:37:09.417Z,101366.00
2023-03-29T07:39:38.902Z,101359.41
2023-03-29T07:42:25.048Z,101370.47
2023-03-29T07:44:54.214Z,101366.47
2023-03-29T07:47:22.059Z,101379.03
2023-03-29T07:49:50.657Z,101373.28
2023-03-29T07:52:18.565Z,101375.09
2023-03-29T07:54:45.826Z,101379.47
2023-03-29T07:57:25.644Z,101380.41
2023-03-29T07:59:55.274Z,101372.59
2023-03-29T08:02:28.001Z,101377.81
2023-03-29T08:04:59.505Z,101378.69
2023-03-29T08:07:49.451Z,101376.03
2023-03-29T08:10:21.486Z,101370.72
2023-03-29T08:13:07.420Z,101368.94
2023-03-29T08:15:48.593Z,101365.41
2023-03-29T08:18:26.711Z,101371.41
2023-03-29T08:20:54.260Z,101369.66
2023-03-29T08:23:21.841Z,101366.22
2023-03-29T08:26:10.673Z,101353.22
2023-03-29T08:28:39.561Z,101354.22
2023-03-29T08:31:10.082Z,101362.28
2023-03-29T08:33:42.279Z,101365.03
2023-03-29T08:36:27.680Z,101372.03
2023-03-29T08:38:57.544Z,101365.13
2023-03-29T08:41:50.275Z,101368.81
2023-03-29T08:44:29.202Z,101359.47
2023-03-29T08:47:14.026Z,101352.78
2023-03-29T08:49:50.328Z,101348.56
2023-03-29T08:52:31.216Z,101348.59
2023-03-29T08:55:03.599Z,101350.47
2023-03-29T08:57:34.848Z,101354.97
2023-03-29T09:00:11.141Z,101344.53
2023-03-29T09:02:41.378Z,101356.03
2023-03-29T09:05:25.824Z,101348.19
2023-03-29T09:08:19.197Z,101339.50
2023-03-29T09:10:53.416Z,101333.50
2023-03-29T09:13:30.630Z,101330.97
2023-03-29T09:16:12.583Z,101338.09
2023-03-29T09:19:16.396Z,101331.22
2023-03-29T09:21:46.805Z,101334.00
2023-03-29T09:24:52.729Z,101327.19
2023-03-29T09:27:38.036Z,101328.16
2023-03-29T09:30:50.775Z,101316.94
2023-03-29T09:33:44.226Z,101317.03
2023-03-29T09:36:34.662Z,101310.13
2023-03-29T09:39:03.360Z,101305.84
2023-03-29T09:41:41.250Z,101311.22
2023-03-29T09:44:24.211Z,101313.97
2023-03-29T09:47:07.169Z,101296.56
2023-03-29T09:49:43.518Z,101299.31
2023-03-29T09:52:17.112Z,101303.78
2023-03-29T09:54:52.471Z,101295.19
2023-03-29T09:57:22.757Z,101302.31
2023-03-29T09:59:51.806Z,101299.00
2023-03-29T10:02:21.257Z,101294.81
2023-03-29T10:04:56.005Z,101284.50
2023-03-29T10:07:23.560Z,101276.69
2023-03-29T10:09:56.915Z,101282.13
2023-03-29T10:12:25.356Z,101304.13
2023-03-29T10:14:54.346Z,101293.56
2023-03-29T10:17:24.792Z,101298.91
2023-03-29T10:20:19.486Z,101305.09
2023-03-29T10:22:50.058Z,101308.59
2023-03-29T10:25:18.597Z,101312.09
2023-03-29T10:27:47.901Z,101321.69
2023-03-29T10:30:23.909Z,101311.19
2023-03-29T10:33:00.056Z,101313.00
2023-03-29T10:35:40.269Z,101309.47
2023-03-29T10:38:13.435Z,101305.09
2023-03-29T10:40:48.273Z,101305.91
2023-03-29T10:43:26.399Z,101307.69
2023-03-29T10:46:08.156Z,101304.16
2023-03-29T10:48:36.456Z,101309.28
2023-03-29T10:51:05.846Z,101322.41
2023-03-29T10:53:36.493Z,101315.31
2023-03-29T10:56:07.809Z,101322.34
2023-03-29T10:58:53.339Z,101325.84
2023-03-29T11:01:54.913Z,101330.13
2023-03-29T11:04:28.472Z,101331.75
2023-03-29T11:07:22.697Z,101332.69
2023-03-29T11:10:19.239Z,101321.25
2023-03-29T11:12:55.401Z,101314.28
2023-03-29T11:15:45.266Z,101303.81
2023-03-29T11:18:27.435Z,101308.34
2023-03-29T11:21:23.521Z,101312.91
2023-03-29T11:24:15.812Z,101310.41
2023-03-29T11:27:02.714Z,101295.69
2023-03-29T11:30:02.327Z,101287.16
2023-03-29T11:32:53.101Z,101287.34
2023-03-29T11:35:34.544Z,101280.44
2023-03-29T11:38:05.469Z,101287.59
2023-03-29T11:41:03.549Z,101286.81
2023-03-29T11:43:37.787Z,101276.34
2023-03-29T11:46:20.593Z,101272.03
2023-03-29T11:49:01.637Z,101273.84
2023-03-29T11:51:32.237Z,101270.34
2023-03-29T11:54:16.341Z,101277.44
2023-03-29T11:57:02.192Z,101281.88
2023-03-29T12:00:05.417Z,101278.44
2023-03-29T12:02:53.531Z,101293.47
2023-03-29T12:05:32.890Z,101279.44
2023-03-29T12:08:03.829Z,101278.63
2023-03-29T12:10:36.231Z,101276.88
2023-03-29T12:13:15.394Z,101271.63
2023-03-29T12:15:52.768Z,101267.25
2023-03-29T12:18:29.386Z,101269.91
2023-03-29T12:21:03.828Z,101257.50
2023-03-29T12:23:34.108Z,101258.38
2023-03-29T12:26:19.596Z,101257.47
2023-03-29T12:29:08.666Z,101255.69
2023-03-29T12:31:35.886Z,101247.75
2023-03-29T12:34:14.961Z,101245.16
2023-03-29T12:37:38.178Z,101247.81
2023-03-29T12:40:41.850Z,101238.13
2023-03-29T12:43:37.812Z,101233.78
2023-03-29T12:46:26.737Z,101246.13
2023-03-29T12:49:09.641Z,101253.19
2023-03-29T12:51:41.241Z,101239.97
2023-03-29T12:54:16.893Z,101243.53
2023-03-29T12:56:58.576Z,101233.88
2023-03-29T12:59:39.927Z,101232.13
2023-03-29T13:02:14.104Z,101227.69
2023-03-29T13:04:51.012Z,101233.88
2023-03-29T13:07:26.461Z,101229.47
2023-03-29T13:09:56.572Z,101230.34
2023-03-29T13:12:32.923Z,101221.53
2023-03-29T13:15:35.972Z,101228.63
2023-03-29T13:18:21.071Z,101225.13
2023-03-29T13:21:03.553Z,101224.22
2023-03-29T13:23:56.893Z,101222.47
2023-03-29T13:26:45.772Z,101213.69
2023-03-29T13:29:32.174Z,101214.56
2023-03-29T13:32:13.353Z,101200.47
2023-03-29T13:34:44.004Z,101202.25
2023-03-29T13:37:30.183Z,101201.34
2023-03-29T13:39:58.800Z,101196.06
2023-03-29T13:42:35.592Z,101195.19
2023-03-29T13:45:29.406Z,101193.41
2023-03-29T13:48:05.825Z,101193.41
2023-03-29T13:50:39.807Z,101189.88
2023-03-29T13:53:15.729Z,101187.25
2023-03-29T13:55:51.131Z,101188.16
2023-03-29T13:58:41.919Z,101176.66
2023-03-29T14:01:13.509Z,101178.44
2023-03-29T14:03:45.586Z,101179.31
2023-03-29T14:06:17.234Z,101175.81
2023-03-29T14:08:45.408Z,101172.25
2023-03-29T14:11:25.437Z,101161.69
2023-03-29T14:13:57.906Z,101155.50
2023-03-29T14:16:32.385Z,101144.94
2023-03-29T14:19:03.388Z,101161.69
2023-03-29T14:21:31.363Z,101157.28
2023-03-29T14:24:01.891Z,101157.25
2023-03-29T14:26:34.618Z,101158.16
2023-03-29T14:29:03.015Z,101162.56
2023-03-29T14:31:33.457Z,101156.38
2023-03-29T14:34:02.835Z,101155.50
2023-03-29T14:36:33.280Z,101160.78
2023-03-29T14:39:20.899Z,101154.59
2023-03-29T14:41:57.141Z,101143.16
2023-03-29T14:44:32.012Z,101147.56
2023-03-29T14:47:01.554Z,101149.31
2023-03-29T14:49:29.888Z,101152.84
2023-03-29T14:51:57.703Z,101151.06
2023-03-29T14:54:33.706Z,101154.63
2023-03-29T14:57:06.744Z,101143.16
2023-03-29T14:59:44.550Z,101141.41
2023-03-29T15:02:32.336Z,101141.41
2023-03-29T15:05:23.200Z,101151.13
2023-03-29T15:07:56.279Z,101145.78
2023-03-29T15:10:24.022Z,101144.06
2023-03-29T15:12:51.632Z,101142.28
2023-03-29T15:15:19.378Z,101130.81
2023-03-29T15:17:51.041Z,101137.00
2023-03-29T15:20:27.069Z,101142.28
2023-03-29T15:23:04.610Z,101132.56
2023-03-29T15:25:47.703Z,101128.19
2023-03-29T15:28:33.747Z,101118.47
2023-03-29T15:31:12.365Z,101122.03
2023-03-29T15:33:41.701Z,101102.63
2023-03-29T15:36:12.325Z,101094.69
2023-03-29T15:38:44.775Z,101096.44
2023-03-29T15:41:16.127Z,101083.25
2023-03-29T15:43:43.500Z,101091.19
2023-03-29T15:46:12.397Z,101090.31
2023-03-29T15:48:40.512Z,101083.25
2023-03-29T15:51:11.687Z,101085.03
2023-03-29T15:53:39.220Z,101081.50
2023-03-29T15:56:10.172Z,101072.72
2023-03-29T15:58:38.188Z,101070.06
2023-03-29T16:01:36.633Z,101066.53
2023-03-29T16:04:05.442Z,101063.00
2023-03-29T16:06:33.977Z,101063.91
2023-03-29T16:09:01.358Z,101068.31
2023-03-29T16:11:28.874Z,101064.78
2023-03-29T16:13:57.081Z,101070.09
2023-03-29T16:16:24.941Z,101064.78
2023-03-29T16:18:52.555Z,101069.19
2023-03-29T16:21:22.359Z,101068.31
2023-03-29T16:23:50.026Z,101068.31
2023-03-29T16:26:17.245Z,101072.72
2023-03-29T16:28:44.489Z,101063.91
2023-03-29T16:31:13.574Z,101063.94
2023-03-29T16:33:41.613Z,101071.84
2023-03-29T16:36:09.901Z,101062.16
2023-03-29T16:38:37.151Z,101051.59
2023-03-29T16:41:04.703Z,101040.16
2023-03-29T16:43:32.455Z,101045.38
2023-03-29T16:45:59.989Z,101040.97
2023-03-29T16:48:27.396Z,101043.59
2023-03-29T16:50:54.672Z,101044.47
2023-03-29T16:53:23.214Z,101049.75
2023-03-29T16:55:50.709Z,101048.84
2023-03-29T16:58:18.086Z,101047.97
2023-03-29T17:00:48.179Z,101041.81
2023-03-29T17:03:17.002Z,101040.06
2023-03-29T17:05:48.660Z,101033.03
2023-03-29T17:08:17.629Z,101027.72
2023-03-29T17:10:45.231Z,101023.34
2023-03-29T17:13:13.164Z,101021.56
2023-03-29T17:15:41.156Z,101018.94
2023-03-29T17:18:08.985Z,101009.22
2023-03-29T17:20:38.916Z,101005.69
2023-03-29T17:23:06.463Z,101003.94
2023-03-29T17:25:33.672Z,100997.78
2023-03-29T17:28:00.989Z,101006.59
2023-03-29T17:30:28.164Z,100999.53
2023-03-29T17:32:55.714Z,100997.75
2023-03-29T17:35:22.981Z,100997.75
2023-03-29T17:37:50.501Z,101000.34
2023-03-29T17:40:18.652Z,100999.47
2023-03-29T17:42:47.914Z,100993.31
2023-03-29T17:45:15.795Z,100995.91
2023-03-29T17:47:43.012Z,100998.53
2023-03-29T17:50:12.816Z,101002.94
2023-03-29T17:52:40.426Z,100999.38
2023-03-29T17:55:13.814Z,101000.28
2023-03-29T17:57:42.128Z,100988.81
2023-03-29T18:00:14.265Z,100996.72
2023-03-29T18:02:41.892Z,100994.06
2023-03-29T18:05:10.404Z,100999.31
2023-03-29T18:07:38.045Z,101002.81
2023-03-29T18:10:06.539Z,100987.88
2023-03-29T18:12:33.859Z,100990.50
2023-03-29T18:15:01.444Z,100988.72
2023-03-29T18:17:28.880Z,100984.31
2023-03-29T18:19:56.238Z,100988.69
2023-03-29T18:22:24.197Z,100990.44
2023-03-29T18:24:53.935Z,100986.91
2023-03-29T18:27:21.991Z,100986.91
2023-03-29T18:29:49.262Z,100988.63
2023-03-29T18:32:16.940Z,100989.50
2023-03-29T18:34:45.439Z,100993.91
2023-03-29T18:37:15.318Z,100993.88
2023-03-29T18:39:43.073Z,100993.88
2023-03-29T18:42:12.175Z,100989.50
2023-03-29T18:44:40.672Z,100978.91
2023-03-29T18:47:08.513Z,100968.38
2023-03-29T18:49:36.749Z,100971.91
2023-03-29T18:52:05.808Z,100973.63
2023-03-29T18:54:33.236Z,100967.44
2023-03-29T18:57:00.660Z,100969.22
2023-03-29T18:59:27.985Z,100968.28
2023-03-29T19:01:56.338Z,100970.91
2023-03-29T19:04:25.786Z,100965.63
2023-03-29T19:06:56.518Z,100966.50
2023-03-29T19:09:23.735Z,100966.47
2023-03-29T19:11:51.063Z,100966.47
2023-03-29T19:14:25.228Z,100972.63
2023-03-29T19:16:53.435Z,100969.09
2023-03-29T19:19:22.627Z,100951.53
2023-03-29T19:21:50.094Z,100945.38
2023-03-29T19:24:19.494Z,100948.00
2023-03-29T19:26:47.977Z,100950.63
2023-03-29T19:29:15.563Z,100952.41
2023-03-29T19:31:43.105Z,100940.09
2023-03-29T19:34:11.123Z,100927.81
2023-03-29T19:36:39.341Z,100928.69
2023-03-29T19:39:10.319Z,100923.41
2023-03-29T19:41:38.574Z,100920.75
2023-03-29T19:44:07.590Z,100915.47
2023-03-29T19:46:35.066Z,100910.22
2023-03-29T19:49:05.864Z,100897.03
2023-03-29T19:51:33.239Z,100894.41
2023-03-29T19:54:00.781Z,100903.19
2023-03-29T19:56:28.191Z,100904.06
2023-03-29T19:58:55.747Z,100896.16
2023-03-29T20:01:27.101Z,100897.91
2023-03-29T20:03:54.548Z,100891.75
2023-03-29T20:06:21.951Z,100895.25
2023-03-29T20:08:49.594Z,100884.72
2023-03-29T20:11:19.808Z,100888.22
2023-03-29T20:13:47.174Z,100881.22
2023-03-29T20:16:16.512Z,100875.97
2023-03-29T20:18:45.242Z,100867.19
2023-03-29T20:21:17.035Z,100865.44
2023-03-29T20:23:44.852Z,100865.44
2023-03-29T20:26:12.205Z,100854.00
2023-03-29T20:28:39.653Z,100845.22
2023-03-29T20:31:10.868Z,100839.09
2023-03-29T20:33:39.053Z,100839.97
2023-03-29T20:36:08.753Z,100843.47
2023-03-29T20:38:37.502Z,100825.06
2023-03-29T20:41:06.097Z,100825.06
2023-03-29T20:43:41.189Z,100811.00
2023-03-29T20:46:14.846Z,100810.97
2023-03-29T20:48:54.403Z,100808.34
2023-03-29T20:51:30.577Z,100803.94
2023-03-29T20:54:02.313Z,100807.44
2023-03-29T20:56:33.957Z,100809.19
2023-03-29T20:59:01.361Z,100793.38
2023-03-29T21:01:30.089Z,100796.88
2023-03-29T21:03:57.756Z,100787.22
2023-03-29T21:06:24.965Z,100781.09
2023-03-29T21:08:52.602Z,100774.06
2023-03-29T21:11:21.253Z,100771.44
2023-03-29T21:13:48.460Z,100768.81
2023-03-29T21:16:15.752Z,100770.56
2023-03-29T21:18:43.879Z,100757.38
2023-03-29T21:21:12.139Z,100742.47
2023-03-29T21:23:39.522Z,100735.44
2023-03-29T21:26:07.858Z,100735.44
2023-03-29T21:28:37.653Z,100728.41
2023-03-29T21:31:06.227Z,100731.91
2023-03-29T21:33:34.494Z,100731.00
2023-03-29T21:36:02.416Z,100715.22
2023-03-29T21:38:29.787Z,100703.81
2023-03-29T21:40:58.261Z,100707.34
2023-03-29T21:43:25.482Z,100710.81
2023-03-29T21:45:52.881Z,100702.06
2023-03-29T21:48:20.121Z,100689.78
2023-03-29T21:50:51.117Z,100682.75
2023-03-29T21:53:19.164Z,100681.91
2023-03-29T21:55:49.084Z,100676.63
2023-03-29T21:58:16.787Z,100662.56
2023-03-29T22:00:46.063Z,100665.22
2023-03-29T22:03:14.575Z,100653.81
2023-03-29T22:05:42.424Z,100656.47
2023-03-29T22:08:10.680Z,100650.31
2023-03-29T22:10:41.536Z,100652.06
2023-03-29T22:13:09.296Z,100636.28
2023-03-29T22:15:36.630Z,100630.16
2023-03-29T22:18:04.269Z,100629.25
2023-03-29T22:20:35.722Z,100625.75
2023-03-29T22:23:03.483Z,100624.00
2023-03-29T22:25:31.083Z,100620.50
2023-03-29T22:27:58.893Z,100630.16
2023-03-29T22:30:26.189Z,100609.13
2023-03-29T22:32:53.567Z,100601.22
2023-03-29T22:35:21.376Z,100614.38
2023-03-29T22:37:48.633Z,100614.38
2023-03-29T22:40:16.606Z,100614.34
2023-03-29T22:42:44.032Z,100607.34
2023-03-29T22:45:11.568Z,100614.38
2023-03-29T22:47:38.879Z,100607.34
2023-03-29T22:50:07.246Z,100609.09
2023-03-29T22:52:34.449Z,100601.19
2023-03-29T22:55:01.754Z,100599.47
2023-03-29T22:57:29.115Z,100591.56
2023-03-29T22:59:56.537Z,100591.56
2023-03-29T23:02:24.050Z,100590.69
2023-03-29T23:04:51.410Z,100588.06
2023-03-29T23:07:18.854Z,100581.06
2023-03-29T23:09:46.272Z,100587.19
2023-03-29T23:12:13.510Z,100589.81
2023-03-29T23:14:42.882Z,100580.16
2023-03-29T23:17:10.385Z,100574.91
2023-03-29T23:19:38.098Z,100565.25
2023-03-29T23:22:05.434Z,100562.63
2023-03-29T23:24:32.671Z,100566.13
2023-03-29T23:27:01.186Z,100561.72
2023-03-29T23:29:28.755Z,100549.47
2023-03-29T23:31:56.894Z,100544.22
2023-03-29T23:34:24.358Z,100534.56
2023-03-29T23:36:51.714Z,100530.16
2023-03-29T23:39:19.231Z,100528.44
2023-03-29T23:41:46.522Z,100522.25
2023-03-29T23:44:13.811Z,100498.59
2023-03-29T23:46:41.978Z,100509.13
2023-03-29T23:49:10.614Z,100505.63
2023-03-29T23:51:39.074Z,100503.88
2023-03-29T23:54:06.681Z,100511.75
2023-03-29T23:56:34.463Z,100504.75
2023-03-29T23:59:01.795Z,100500.38
